Avant, Oklahoma
Current Conditions -  °F | °C
As of 11:53 AM on Friday 24 Oct 2014 (Local Time) from KBVO Reporting Station
Clear Clear  
Wind Chill: 73°   Ceiling: Unl
Heat Index: 73°   Visibility: 10mi
Dew Point: 60°   Wind: 5mph
Humidity: 64%   Direction: NA
Pressure: 30.11"   Gusts: NA
Location:  36.49°N, 96.06°W
Report Text: KBVO 241653Z AUTO VRB04KT 10SM CLR 23/16 A3011 RMK AO2 SLP187 T02280156
Loading
Personal Weather Stations






























Interactive Weather Map
Tropical Storm Tracking
New forecast layout! Learn more

10-Day Weather Forecast

Advertisements
Track Severe Weather on mobile